sensor_id;sensor_type;location;lat;lon;timestamp;P1;durP1;ratioP1;P2;durP2;ratioP2
7191;SDS011;3637;51.494;11.958;2023-02-01T00:02:34;3.53;;;2.50;;
7191;SDS011;3637;51.494;11.958;2023-02-01T00:05:39;5.13;;;2.87;;
7191;SDS011;3637;51.494;11.958;2023-02-01T00:08:41;2.13;;;1.93;;
7191;SDS011;3637;51.494;11.958;2023-02-01T00:11:43;5.80;;;2.60;;
7191;SDS011;3637;51.494;11.958;2023-02-01T00:14:45;4.50;;;2.40;;
7191;SDS011;3637;51.494;11.958;2023-02-01T00:17:50;4.17;;;2.47;;
7191;SDS011;3637;51.494;11.958;2023-02-01T00:20:54;4.57;;;2.17;;
7191;SDS011;3637;51.494;11.958;2023-02-01T00:23:56;3.40;;;2.20;;
7191;SDS011;3637;51.494;11.958;2023-02-01T00:26:58;3.93;;;2.50;;
7191;SDS011;3637;51.494;11.958;2023-02-01T00:30:00;6.60;;;1.90;;
7191;SDS011;3637;51.494;11.958;2023-02-01T00:33:03;8.87;;;1.90;;
7191;SDS011;3637;51.494;11.958;2023-02-01T00:36:06;4.93;;;2.43;;
7191;SDS011;3637;51.494;11.958;2023-02-01T00:39:09;2.87;;;1.90;;
7191;SDS011;3637;51.494;11.958;2023-02-01T00:42:11;8.07;;;2.77;;
7191;SDS011;3637;51.494;11.958;2023-02-01T00:45:13;2.17;;;1.83;;
7191;SDS011;3637;51.494;11.958;2023-02-01T00:48:19;4.60;;;1.70;;
7191;SDS011;3637;51.494;11.958;2023-02-01T00:51:22;4.43;;;1.93;;
7191;SDS011;3637;51.494;11.958;2023-02-01T00:54:25;2.50;;;2.30;;
7191;SDS011;3637;51.494;11.958;2023-02-01T00:57:30;4.07;;;2.87;;
7191;SDS011;3637;51.494;11.958;2023-02-01T01:00:32;3.07;;;2.10;;
7191;SDS011;3637;51.494;11.958;2023-02-01T01:03:36;6.50;;;2.47;;
7191;SDS011;3637;51.494;11.958;2023-02-01T01:06:39;4.87;;;2.23;;
7191;SDS011;3637;51.494;11.958;2023-02-01T01:09:41;2.00;;;1.80;;
7191;SDS011;3637;51.494;11.958;2023-02-01T01:12:43;6.23;;;3.47;;
7191;SDS011;3637;51.494;11.958;2023-02-01T01:15:46;3.30;;;1.73;;
7191;SDS011;3637;51.494;11.958;2023-02-01T01:18:50;6.80;;;2.13;;
7191;SDS011;3637;51.494;11.958;2023-02-01T01:21:52;5.20;;;1.93;;
7191;SDS011;3637;51.494;11.958;2023-02-01T01:24:54;6.40;;;2.07;;
7191;SDS011;3637;51.494;11.958;2023-02-01T01:27:58;4.17;;;2.30;;
7191;SDS011;3637;51.494;11.958;2023-02-01T01:31:00;10.87;;;2.40;;
7191;SDS011;3637;51.494;11.958;2023-02-01T01:34:03;5.47;;;2.27;;
7191;SDS011;3637;51.494;11.958;2023-02-01T01:37:05;3.17;;;2.20;;
7191;SDS011;3637;51.494;11.958;2023-02-01T01:40:07;3.47;;;2.00;;
7191;SDS011;3637;51.494;11.958;2023-02-01T01:43:12;8.07;;;2.97;;
7191;SDS011;3637;51.494;11.958;2023-02-01T01:46:20;4.07;;;2.20;;
7191;SDS011;3637;51.494;11.958;2023-02-01T01:49:25;5.27;;;2.47;;
7191;SDS011;3637;51.494;11.958;2023-02-01T01:52:27;3.70;;;2.07;;
7191;SDS011;3637;51.494;11.958;2023-02-01T01:55:31;4.77;;;2.33;;
7191;SDS011;3637;51.494;11.958;2023-02-01T01:58:34;7.73;;;2.37;;
7191;SDS011;3637;51.494;11.958;2023-02-01T02:01:37;5.63;;;2.13;;
7191;SDS011;3637;51.494;11.958;2023-02-01T02:04:40;3.27;;;2.20;;
7191;SDS011;3637;51.494;11.958;2023-02-01T02:07:43;2.83;;;2.47;;
7191;SDS011;3637;51.494;11.958;2023-02-01T02:10:47;3.40;;;2.40;;
7191;SDS011;3637;51.494;11.958;2023-02-01T02:14:02;4.67;;;2.93;;
7191;SDS011;3637;51.494;11.958;2023-02-01T02:17:16;7.00;;;2.10;;
7191;SDS011;3637;51.494;11.958;2023-02-01T02:20:35;4.40;;;1.90;;
7191;SDS011;3637;51.494;11.958;2023-02-01T02:27:35;3.97;;;2.20;;
7191;SDS011;3637;51.494;11.958;2023-02-01T02:30:52;4.57;;;1.70;;
7191;SDS011;3637;51.494;11.958;2023-02-01T02:34:16;3.60;;;1.97;;
7191;SDS011;3637;51.494;11.958;2023-02-01T02:37:24;5.93;;;3.13;;
7191;SDS011;3637;51.494;11.958;2023-02-01T02:40:31;3.90;;;1.90;;
7191;SDS011;3637;51.494;11.958;2023-02-01T02:43:39;8.10;;;2.67;;
7191;SDS011;3637;51.494;11.958;2023-02-01T02:47:05;6.63;;;2.40;;
7191;SDS011;3637;51.494;11.958;2023-02-01T02:50:32;4.37;;;2.77;;
7191;SDS011;3637;51.494;11.958;2023-02-01T02:53:56;9.57;;;2.43;;
7191;SDS011;3637;51.494;11.958;2023-02-01T02:57:34;3.43;;;2.10;;
7191;SDS011;3637;51.494;11.958;2023-02-01T03:00:56;8.13;;;2.20;;
7191;SDS011;3637;51.494;11.958;2023-02-01T03:04:15;5.80;;;2.50;;
7191;SDS011;3637;51.494;11.958;2023-02-01T03:10:53;5.40;;;2.33;;
7191;SDS011;3637;51.494;11.958;2023-02-01T03:13:59;6.97;;;2.50;;
7191;SDS011;3637;51.494;11.958;2023-02-01T03:17:03;10.10;;;3.13;;
7191;SDS011;3637;51.494;11.958;2023-02-01T03:20:10;4.20;;;2.50;;
7191;SDS011;3637;51.494;11.958;2023-02-01T03:23:16;3.83;;;2.10;;
7191;SDS011;3637;51.494;11.958;2023-02-01T03:26:22;10.47;;;2.67;;
7191;SDS011;3637;51.494;11.958;2023-02-01T03:29:30;6.03;;;2.10;;
7191;SDS011;3637;51.494;11.958;2023-02-01T03:32:38;4.93;;;2.47;;
7191;SDS011;3637;51.494;11.958;2023-02-01T03:36:14;2.53;;;2.33;;
7191;SDS011;3637;51.494;11.958;2023-02-01T03:39:23;3.30;;;2.03;;
7191;SDS011;3637;51.494;11.958;2023-02-01T03:42:33;2.30;;;1.90;;
7191;SDS011;3637;51.494;11.958;2023-02-01T03:45:38;4.70;;;2.30;;
7191;SDS011;3637;51.494;11.958;2023-02-01T03:48:44;8.63;;;3.17;;
7191;SDS011;3637;51.494;11.958;2023-02-01T03:51:47;4.37;;;2.57;;
7191;SDS011;3637;51.494;11.958;2023-02-01T03:54:52;4.83;;;2.50;;
7191;SDS011;3637;51.494;11.958;2023-02-01T03:57:55;4.40;;;2.13;;
7191;SDS011;3637;51.494;11.958;2023-02-01T04:01:01;5.43;;;2.33;;
7191;SDS011;3637;51.494;11.958;2023-02-01T04:04:05;5.87;;;2.20;;
7191;SDS011;3637;51.494;11.958;2023-02-01T04:07:08;6.07;;;2.70;;
7191;SDS011;3637;51.494;11.958;2023-02-01T04:10:10;4.90;;;2.70;;
7191;SDS011;3637;51.494;11.958;2023-02-01T04:13:16;12.93;;;2.80;;
7191;SDS011;3637;51.494;11.958;2023-02-01T04:16:17;4.27;;;2.57;;
7191;SDS011;3637;51.494;11.958;2023-02-01T04:19:19;6.00;;;2.60;;
7191;SDS011;3637;51.494;11.958;2023-02-01T04:22:22;5.77;;;2.67;;
7191;SDS011;3637;51.494;11.958;2023-02-01T04:25:24;4.57;;;2.27;;
7191;SDS011;3637;51.494;11.958;2023-02-01T04:28:26;8.67;;;2.23;;
7191;SDS011;3637;51.494;11.958;2023-02-01T04:31:29;6.20;;;3.63;;
7191;SDS011;3637;51.494;11.958;2023-02-01T04:34:31;6.53;;;2.77;;
7191;SDS011;3637;51.494;11.958;2023-02-01T04:37:34;4.77;;;2.03;;
7191;SDS011;3637;51.494;11.958;2023-02-01T04:40:36;5.07;;;2.17;;
7191;SDS011;3637;51.494;11.958;2023-02-01T04:43:38;4.20;;;2.47;;
7191;SDS011;3637;51.494;11.958;2023-02-01T04:46:43;8.87;;;2.00;;
7191;SDS011;3637;51.494;11.958;2023-02-01T04:49:46;4.70;;;1.97;;
7191;SDS011;3637;51.494;11.958;2023-02-01T04:52:49;3.80;;;2.17;;
7191;SDS011;3637;51.494;11.958;2023-02-01T04:55:51;2.63;;;1.83;;
7191;SDS011;3637;51.494;11.958;2023-02-01T04:58:54;6.63;;;2.80;;
7191;SDS011;3637;51.494;11.958;2023-02-01T05:01:56;3.13;;;1.57;;
7191;SDS011;3637;51.494;11.958;2023-02-01T05:04:57;5.40;;;2.43;;
7191;SDS011;3637;51.494;11.958;2023-02-01T05:08:01;7.23;;;2.37;;
7191;SDS011;3637;51.494;11.958;2023-02-01T05:11:03;2.97;;;1.93;;
7191;SDS011;3637;51.494;11.958;2023-02-01T05:14:05;7.07;;;2.23;;
7191;SDS011;3637;51.494;11.958;2023-02-01T05:17:06;2.50;;;1.97;;
7191;SDS011;3637;51.494;11.958;2023-02-01T05:20:08;4.67;;;2.13;;
7191;SDS011;3637;51.494;11.958;2023-02-01T05:23:12;8.47;;;2.60;;
7191;SDS011;3637;51.494;11.958;2023-02-01T05:26:14;5.57;;;2.33;;
7191;SDS011;3637;51.494;11.958;2023-02-01T05:29:16;3.47;;;2.40;;
7191;SDS011;3637;51.494;11.958;2023-02-01T05:32:20;7.30;;;2.43;;
7191;SDS011;3637;51.494;11.958;2023-02-01T05:35:21;6.10;;;2.30;;
7191;SDS011;3637;51.494;11.958;2023-02-01T05:38:25;3.93;;;2.77;;
7191;SDS011;3637;51.494;11.958;2023-02-01T05:41:27;7.37;;;2.17;;
7191;SDS011;3637;51.494;11.958;2023-02-01T05:44:29;7.17;;;2.53;;
7191;SDS011;3637;51.494;11.958;2023-02-01T05:47:33;4.37;;;2.87;;
7191;SDS011;3637;51.494;11.958;2023-02-01T05:50:35;5.87;;;2.10;;
7191;SDS011;3637;51.494;11.958;2023-02-01T05:53:39;2.97;;;2.57;;
7191;SDS011;3637;51.494;11.958;2023-02-01T05:56:41;9.03;;;2.13;;
7191;SDS011;3637;51.494;11.958;2023-02-01T05:59:43;6.60;;;2.47;;
7191;SDS011;3637;51.494;11.958;2023-02-01T06:02:45;4.80;;;2.73;;
7191;SDS011;3637;51.494;11.958;2023-02-01T06:05:47;3.63;;;2.50;;
7191;SDS011;3637;51.494;11.958;2023-02-01T06:08:50;3.20;;;1.97;;
7191;SDS011;3637;51.494;11.958;2023-02-01T06:11:52;9.00;;;3.10;;
7191;SDS011;3637;51.494;11.958;2023-02-01T06:14:56;5.10;;;2.60;;
7191;SDS011;3637;51.494;11.958;2023-02-01T06:17:59;7.27;;;2.67;;
7191;SDS011;3637;51.494;11.958;2023-02-01T06:21:01;3.60;;;2.17;;
7191;SDS011;3637;51.494;11.958;2023-02-01T06:24:07;3.07;;;2.37;;
7191;SDS011;3637;51.494;11.958;2023-02-01T06:38:41;5.67;;;2.60;;
7191;SDS011;3637;51.494;11.958;2023-02-01T06:41:46;10.00;;;2.33;;
7191;SDS011;3637;51.494;11.958;2023-02-01T06:44:49;2.50;;;2.00;;
7191;SDS011;3637;51.494;11.958;2023-02-01T06:47:51;2.93;;;2.13;;
7191;SDS011;3637;51.494;11.958;2023-02-01T06:50:53;5.47;;;2.73;;
7191;SDS011;3637;51.494;11.958;2023-02-01T06:53:54;6.70;;;2.47;;
7191;SDS011;3637;51.494;11.958;2023-02-01T06:56:58;5.10;;;2.10;;
7191;SDS011;3637;51.494;11.958;2023-02-01T07:00:00;5.23;;;2.50;;
7191;SDS011;3637;51.494;11.958;2023-02-01T07:03:02;3.63;;;2.60;;
7191;SDS011;3637;51.494;11.958;2023-02-01T07:06:05;10.47;;;2.70;;
7191;SDS011;3637;51.494;11.958;2023-02-01T07:09:07;5.87;;;2.63;;
7191;SDS011;3637;51.494;11.958;2023-02-01T07:12:11;3.07;;;2.67;;
7191;SDS011;3637;51.494;11.958;2023-02-01T07:15:13;6.70;;;2.37;;
7191;SDS011;3637;51.494;11.958;2023-02-01T07:18:15;6.70;;;2.90;;
7191;SDS011;3637;51.494;11.958;2023-02-01T07:21:17;2.70;;;2.23;;
7191;SDS011;3637;51.494;11.958;2023-02-01T07:24:19;6.30;;;2.50;;
7191;SDS011;3637;51.494;11.958;2023-02-01T07:27:22;3.50;;;2.50;;
7191;SDS011;3637;51.494;11.958;2023-02-01T07:30:25;3.93;;;2.00;;
7191;SDS011;3637;51.494;11.958;2023-02-01T07:33:30;3.10;;;2.03;;
7191;SDS011;3637;51.494;11.958;2023-02-01T07:36:32;2.47;;;2.03;;
7191;SDS011;3637;51.494;11.958;2023-02-01T07:39:36;5.50;;;2.77;;
7191;SDS011;3637;51.494;11.958;2023-02-01T07:42:39;8.97;;;2.23;;
7191;SDS011;3637;51.494;11.958;2023-02-01T07:45:41;4.73;;;2.50;;
7191;SDS011;3637;51.494;11.958;2023-02-01T07:48:43;5.57;;;2.93;;
7191;SDS011;3637;51.494;11.958;2023-02-01T07:51:44;4.47;;;2.40;;
7191;SDS011;3637;51.494;11.958;2023-02-01T07:54:46;7.37;;;2.50;;
7191;SDS011;3637;51.494;11.958;2023-02-01T07:57:49;4.23;;;2.27;;
7191;SDS011;3637;51.494;11.958;2023-02-01T08:00:53;2.13;;;1.90;;
7191;SDS011;3637;51.494;11.958;2023-02-01T08:04:13;3.70;;;2.17;;
7191;SDS011;3637;51.494;11.958;2023-02-01T08:07:15;2.73;;;2.27;;
7191;SDS011;3637;51.494;11.958;2023-02-01T08:10:17;6.20;;;2.67;;
7191;SDS011;3637;51.494;11.958;2023-02-01T08:13:23;4.43;;;2.73;;
7191;SDS011;3637;51.494;11.958;2023-02-01T08:16:25;4.83;;;2.47;;
7191;SDS011;3637;51.494;11.958;2023-02-01T08:19:30;7.20;;;2.67;;
7191;SDS011;3637;51.494;11.958;2023-02-01T08:22:32;3.33;;;2.30;;
7191;SDS011;3637;51.494;11.958;2023-02-01T08:25:34;7.30;;;2.63;;
7191;SDS011;3637;51.494;11.958;2023-02-01T08:28:37;7.87;;;2.67;;
7191;SDS011;3637;51.494;11.958;2023-02-01T08:31:40;2.03;;;1.87;;
7191;SDS011;3637;51.494;11.958;2023-02-01T08:34:43;5.53;;;2.50;;
7191;SDS011;3637;51.494;11.958;2023-02-01T08:37:45;2.40;;;2.20;;
7191;SDS011;3637;51.494;11.958;2023-02-01T08:40:46;6.27;;;2.13;;
7191;SDS011;3637;51.494;11.958;2023-02-01T08:43:50;3.77;;;2.20;;
7191;SDS011;3637;51.494;11.958;2023-02-01T08:46:55;2.70;;;2.20;;
7191;SDS011;3637;51.494;11.958;2023-02-01T08:49:57;2.60;;;2.00;;
7191;SDS011;3637;51.494;11.958;2023-02-01T08:52:59;5.73;;;2.30;;
7191;SDS011;3637;51.494;11.958;2023-02-01T08:56:00;4.27;;;2.70;;
7191;SDS011;3637;51.494;11.958;2023-02-01T08:59:04;3.00;;;2.20;;
7191;SDS011;3637;51.494;11.958;2023-02-01T09:02:08;3.83;;;2.10;;
7191;SDS011;3637;51.494;11.958;2023-02-01T09:05:13;2.33;;;2.07;;
7191;SDS011;3637;51.494;11.958;2023-02-01T09:08:16;2.87;;;2.43;;
7191;SDS011;3637;51.494;11.958;2023-02-01T09:11:20;2.87;;;2.20;;
7191;SDS011;3637;51.494;11.958;2023-02-01T09:14:23;4.93;;;2.80;;
7191;SDS011;3637;51.494;11.958;2023-02-01T09:17:25;7.77;;;2.53;;
7191;SDS011;3637;51.494;11.958;2023-02-01T09:20:27;7.77;;;2.67;;
7191;SDS011;3637;51.494;11.958;2023-02-01T09:23:29;5.63;;;2.63;;
7191;SDS011;3637;51.494;11.958;2023-02-01T09:26:31;4.83;;;2.90;;
7191;SDS011;3637;51.494;11.958;2023-02-01T09:29:34;6.43;;;2.60;;
7191;SDS011;3637;51.494;11.958;2023-02-01T09:32:36;3.27;;;2.83;;
7191;SDS011;3637;51.494;11.958;2023-02-01T09:35:40;5.23;;;2.73;;
7191;SDS011;3637;51.494;11.958;2023-02-01T09:38:42;4.07;;;2.87;;
7191;SDS011;3637;51.494;11.958;2023-02-01T09:41:47;6.83;;;3.27;;
7191;SDS011;3637;51.494;11.958;2023-02-01T09:45:17;8.07;;;3.70;;
7191;SDS011;3637;51.494;11.958;2023-02-01T09:48:24;5.27;;;2.70;;
7191;SDS011;3637;51.494;11.958;2023-02-01T09:51:30;4.63;;;2.63;;
7191;SDS011;3637;51.494;11.958;2023-02-01T09:54:38;5.87;;;2.67;;
7191;SDS011;3637;51.494;11.958;2023-02-01T09:57:44;3.53;;;2.30;;
7191;SDS011;3637;51.494;11.958;2023-02-01T10:00:55;6.73;;;2.80;;
7191;SDS011;3637;51.494;11.958;2023-02-01T10:04:01;6.00;;;2.87;;
7191;SDS011;3637;51.494;11.958;2023-02-01T10:07:10;5.23;;;2.57;;
7191;SDS011;3637;51.494;11.958;2023-02-01T10:10:21;6.60;;;2.70;;
7191;SDS011;3637;51.494;11.958;2023-02-01T10:13:33;5.17;;;3.07;;
7191;SDS011;3637;51.494;11.958;2023-02-01T10:16:47;6.30;;;2.57;;
7191;SDS011;3637;51.494;11.958;2023-02-01T10:19:57;4.07;;;2.40;;
7191;SDS011;3637;51.494;11.958;2023-02-01T10:23:06;2.87;;;2.30;;
7191;SDS011;3637;51.494;11.958;2023-02-01T10:26:21;3.50;;;2.40;;
7191;SDS011;3637;51.494;11.958;2023-02-01T10:29:27;2.90;;;2.07;;
7191;SDS011;3637;51.494;11.958;2023-02-01T10:32:39;5.73;;;2.90;;
7191;SDS011;3637;51.494;11.958;2023-02-01T10:35:42;4.27;;;2.30;;
7191;SDS011;3637;51.494;11.958;2023-02-01T10:38:46;4.10;;;2.07;;
7191;SDS011;3637;51.494;11.958;2023-02-01T10:41:48;2.43;;;1.80;;
7191;SDS011;3637;51.494;11.958;2023-02-01T10:44:50;6.37;;;2.57;;
7191;SDS011;3637;51.494;11.958;2023-02-01T10:47:55;2.73;;;2.07;;
7191;SDS011;3637;51.494;11.958;2023-02-01T10:51:02;4.10;;;2.03;;
7191;SDS011;3637;51.494;11.958;2023-02-01T10:54:09;8.57;;;2.33;;
7191;SDS011;3637;51.494;11.958;2023-02-01T10:57:20;4.00;;;1.97;;
7191;SDS011;3637;51.494;11.958;2023-02-01T11:00:24;3.83;;;2.40;;
7191;SDS011;3637;51.494;11.958;2023-02-01T11:03:38;3.57;;;2.20;;
7191;SDS011;3637;51.494;11.958;2023-02-01T11:06:41;9.23;;;2.37;;
7191;SDS011;3637;51.494;11.958;2023-02-01T11:09:48;5.17;;;2.10;;
7191;SDS011;3637;51.494;11.958;2023-02-01T11:12:52;8.03;;;2.00;;
7191;SDS011;3637;51.494;11.958;2023-02-01T11:15:55;4.60;;;2.00;;
7191;SDS011;3637;51.494;11.958;2023-02-01T11:18:59;6.30;;;2.70;;
7191;SDS011;3637;51.494;11.958;2023-02-01T11:22:01;7.70;;;2.70;;
7191;SDS011;3637;51.494;11.958;2023-02-01T11:25:07;3.07;;;1.63;;
7191;SDS011;3637;51.494;11.958;2023-02-01T11:28:11;8.40;;;3.03;;
7191;SDS011;3637;51.494;11.958;2023-02-01T11:31:14;3.57;;;2.00;;
7191;SDS011;3637;51.494;11.958;2023-02-01T11:34:18;5.90;;;2.37;;
7191;SDS011;3637;51.494;11.958;2023-02-01T11:37:24;3.70;;;1.97;;
7191;SDS011;3637;51.494;11.958;2023-02-01T11:40:29;9.37;;;2.90;;
7191;SDS011;3637;51.494;11.958;2023-02-01T11:43:36;5.27;;;2.67;;
7191;SDS011;3637;51.494;11.958;2023-02-01T11:46:38;5.60;;;1.93;;
7191;SDS011;3637;51.494;11.958;2023-02-01T11:49:41;5.07;;;2.57;;
7191;SDS011;3637;51.494;11.958;2023-02-01T11:52:49;5.13;;;2.30;;
7191;SDS011;3637;51.494;11.958;2023-02-01T11:56:07;3.50;;;2.10;;
7191;SDS011;3637;51.494;11.958;2023-02-01T11:59:21;8.27;;;2.53;;
7191;SDS011;3637;51.494;11.958;2023-02-01T12:02:54;3.07;;;1.90;;
7191;SDS011;3637;51.494;11.958;2023-02-01T12:06:08;4.30;;;2.30;;
7191;SDS011;3637;51.494;11.958;2023-02-01T12:09:21;4.63;;;2.57;;
7191;SDS011;3637;51.494;11.958;2023-02-01T12:12:38;4.20;;;1.77;;
7191;SDS011;3637;51.494;11.958;2023-02-01T12:15:52;2.23;;;2.00;;
7191;SDS011;3637;51.494;11.958;2023-02-01T12:19:10;7.20;;;2.50;;
7191;SDS011;3637;51.494;11.958;2023-02-01T12:22:27;3.70;;;2.10;;
7191;SDS011;3637;51.494;11.958;2023-02-01T12:25:46;2.90;;;1.90;;
7191;SDS011;3637;51.494;11.958;2023-02-01T12:29:09;6.53;;;2.63;;
7191;SDS011;3637;51.494;11.958;2023-02-01T12:32:28;2.80;;;1.90;;
7191;SDS011;3637;51.494;11.958;2023-02-01T12:35:47;5.73;;;2.13;;
7191;SDS011;3637;51.494;11.958;2023-02-01T12:38:57;4.60;;;1.90;;
7191;SDS011;3637;51.494;11.958;2023-02-01T12:42:09;4.33;;;2.17;;
7191;SDS011;3637;51.494;11.958;2023-02-01T12:45:19;6.33;;;1.67;;
7191;SDS011;3637;51.494;11.958;2023-02-01T12:48:33;3.47;;;1.87;;
7191;SDS011;3637;51.494;11.958;2023-02-01T12:51:41;1.90;;;1.70;;
7191;SDS011;3637;51.494;11.958;2023-02-01T12:54:49;4.60;;;1.90;;
7191;SDS011;3637;51.494;11.958;2023-02-01T12:57:59;5.87;;;2.50;;
7191;SDS011;3637;51.494;11.958;2023-02-01T13:01:20;6.73;;;1.83;;
7191;SDS011;3637;51.494;11.958;2023-02-01T13:04:25;2.17;;;1.70;;
7191;SDS011;3637;51.494;11.958;2023-02-01T13:07:33;6.60;;;2.43;;
7191;SDS011;3637;51.494;11.958;2023-02-01T13:10:42;3.13;;;1.83;;
7191;SDS011;3637;51.494;11.958;2023-02-01T13:13:48;5.20;;;2.43;;
7191;SDS011;3637;51.494;11.958;2023-02-01T13:16:58;7.00;;;2.23;;
7191;SDS011;3637;51.494;11.958;2023-02-01T13:20:04;2.43;;;1.83;;
7191;SDS011;3637;51.494;11.958;2023-02-01T13:23:16;2.40;;;2.00;;
7191;SDS011;3637;51.494;11.958;2023-02-01T13:26:28;5.33;;;2.40;;
7191;SDS011;3637;51.494;11.958;2023-02-01T13:29:30;8.73;;;2.53;;
7191;SDS011;3637;51.494;11.958;2023-02-01T13:32:39;4.80;;;2.00;;
7191;SDS011;3637;51.494;11.958;2023-02-01T13:36:04;3.20;;;2.00;;
7191;SDS011;3637;51.494;11.958;2023-02-01T13:42:56;2.43;;;1.93;;
7191;SDS011;3637;51.494;11.958;2023-02-01T13:46:02;2.20;;;1.80;;
7191;SDS011;3637;51.494;11.958;2023-02-01T13:49:13;2.13;;;1.80;;
7191;SDS011;3637;51.494;11.958;2023-02-01T13:52:26;5.30;;;2.30;;
7191;SDS011;3637;51.494;11.958;2023-02-01T13:55:39;2.73;;;2.00;;
7191;SDS011;3637;51.494;11.958;2023-02-01T13:58:44;6.73;;;2.70;;
7191;SDS011;3637;51.494;11.958;2023-02-01T14:01:47;4.60;;;2.37;;
7191;SDS011;3637;51.494;11.958;2023-02-01T14:04:50;3.10;;;2.00;;
7191;SDS011;3637;51.494;11.958;2023-02-01T14:08:02;4.27;;;2.47;;
7191;SDS011;3637;51.494;11.958;2023-02-01T14:14:42;2.70;;;2.10;;
7191;SDS011;3637;51.494;11.958;2023-02-01T14:17:45;4.27;;;2.23;;
7191;SDS011;3637;51.494;11.958;2023-02-01T14:20:47;3.97;;;1.93;;
7191;SDS011;3637;51.494;11.958;2023-02-01T14:23:55;5.07;;;2.13;;
7191;SDS011;3637;51.494;11.958;2023-02-01T14:27:00;4.03;;;2.37;;
7191;SDS011;3637;51.494;11.958;2023-02-01T14:30:06;3.53;;;2.27;;
7191;SDS011;3637;51.494;11.958;2023-02-01T14:33:20;3.37;;;2.30;;
7191;SDS011;3637;51.494;11.958;2023-02-01T14:36:25;6.30;;;2.57;;
7191;SDS011;3637;51.494;11.958;2023-02-01T14:43:07;5.73;;;2.30;;
7191;SDS011;3637;51.494;11.958;2023-02-01T14:46:10;4.03;;;2.90;;
7191;SDS011;3637;51.494;11.958;2023-02-01T14:49:12;5.80;;;2.20;;
7191;SDS011;3637;51.494;11.958;2023-02-01T14:52:16;10.13;;;4.70;;
7191;SDS011;3637;51.494;11.958;2023-02-01T14:55:23;2.97;;;2.67;;
7191;SDS011;3637;51.494;11.958;2023-02-01T14:58:34;6.67;;;3.57;;
7191;SDS011;3637;51.494;11.958;2023-02-01T15:01:46;5.83;;;2.17;;
7191;SDS011;3637;51.494;11.958;2023-02-01T15:04:53;6.93;;;2.60;;
7191;SDS011;3637;51.494;11.958;2023-02-01T15:07:57;4.33;;;2.43;;
7191;SDS011;3637;51.494;11.958;2023-02-01T15:11:06;3.00;;;2.10;;
7191;SDS011;3637;51.494;11.958;2023-02-01T15:14:14;1.93;;;1.83;;
7191;SDS011;3637;51.494;11.958;2023-02-01T15:17:19;5.30;;;3.13;;
7191;SDS011;3637;51.494;11.958;2023-02-01T15:20:22;3.73;;;2.10;;
7191;SDS011;3637;51.494;11.958;2023-02-01T15:23:25;6.70;;;2.23;;
7191;SDS011;3637;51.494;11.958;2023-02-01T15:26:28;2.77;;;1.93;;
7191;SDS011;3637;51.494;11.958;2023-02-01T15:29:32;2.53;;;2.27;;
7191;SDS011;3637;51.494;11.958;2023-02-01T15:32:36;4.10;;;2.30;;
7191;SDS011;3637;51.494;11.958;2023-02-01T15:35:40;3.93;;;1.97;;
7191;SDS011;3637;51.494;11.958;2023-02-01T15:38:44;5.50;;;2.73;;
7191;SDS011;3637;51.494;11.958;2023-02-01T15:41:47;6.40;;;2.37;;
7191;SDS011;3637;51.494;11.958;2023-02-01T15:44:52;2.60;;;1.60;;
7191;SDS011;3637;51.494;11.958;2023-02-01T15:47:56;8.77;;;1.83;;
7191;SDS011;3637;51.494;11.958;2023-02-01T15:51:00;1.47;;;1.37;;
7191;SDS011;3637;51.494;11.958;2023-02-01T15:54:03;1.43;;;1.33;;
7191;SDS011;3637;51.494;11.958;2023-02-01T15:57:07;1.73;;;1.30;;
7191;SDS011;3637;51.494;11.958;2023-02-01T16:00:18;3.90;;;1.43;;
7191;SDS011;3637;51.494;11.958;2023-02-01T16:03:26;1.40;;;1.30;;
7191;SDS011;3637;51.494;11.958;2023-02-01T16:06:34;1.07;;;1.07;;
7191;SDS011;3637;51.494;11.958;2023-02-01T16:09:38;0.90;;;0.90;;
7191;SDS011;3637;51.494;11.958;2023-02-01T16:12:45;0.90;;;0.90;;
7191;SDS011;3637;51.494;11.958;2023-02-01T16:15:48;0.90;;;0.90;;
7191;SDS011;3637;51.494;11.958;2023-02-01T16:18:53;0.87;;;0.87;;
7191;SDS011;3637;51.494;11.958;2023-02-01T16:21:55;1.00;;;1.00;;
7191;SDS011;3637;51.494;11.958;2023-02-01T16:24:58;1.00;;;1.00;;
7191;SDS011;3637;51.494;11.958;2023-02-01T16:28:01;3.60;;;1.40;;
7191;SDS011;3637;51.494;11.958;2023-02-01T16:31:05;1.00;;;1.00;;
7191;SDS011;3637;51.494;11.958;2023-02-01T16:34:12;0.90;;;0.90;;
7191;SDS011;3637;51.494;11.958;2023-02-01T16:37:18;1.53;;;0.90;;
7191;SDS011;3637;51.494;11.958;2023-02-01T16:40:22;2.40;;;1.10;;
7191;SDS011;3637;51.494;11.958;2023-02-01T16:43:24;1.30;;;1.20;;
7191;SDS011;3637;51.494;11.958;2023-02-01T16:46:28;1.27;;;1.17;;
7191;SDS011;3637;51.494;11.958;2023-02-01T16:49:37;3.83;;;1.40;;
7191;SDS011;3637;51.494;11.958;2023-02-01T16:52:42;1.10;;;1.10;;
7191;SDS011;3637;51.494;11.958;2023-02-01T16:55:44;1.47;;;1.37;;
7191;SDS011;3637;51.494;11.958;2023-02-01T16:58:49;5.00;;;1.30;;
7191;SDS011;3637;51.494;11.958;2023-02-01T17:01:54;1.17;;;1.07;;
7191;SDS011;3637;51.494;11.958;2023-02-01T17:04:57;1.50;;;1.30;;
7191;SDS011;3637;51.494;11.958;2023-02-01T17:08:00;1.03;;;1.00;;
7191;SDS011;3637;51.494;11.958;2023-02-01T17:11:06;1.37;;;1.27;;
7191;SDS011;3637;51.494;11.958;2023-02-01T17:14:13;3.50;;;1.27;;
7191;SDS011;3637;51.494;11.958;2023-02-01T17:17:20;1.20;;;1.20;;
7191;SDS011;3637;51.494;11.958;2023-02-01T17:20:24;1.03;;;1.03;;
7191;SDS011;3637;51.494;11.958;2023-02-01T17:23:32;1.33;;;1.23;;
7191;SDS011;3637;51.494;11.958;2023-02-01T17:26:33;2.10;;;1.57;;
7191;SDS011;3637;51.494;11.958;2023-02-01T17:29:35;2.00;;;1.50;;
7191;SDS011;3637;51.494;11.958;2023-02-01T17:32:37;1.10;;;1.10;;
7191;SDS011;3637;51.494;11.958;2023-02-01T17:35:41;1.50;;;1.40;;
7191;SDS011;3637;51.494;11.958;2023-02-01T17:38:43;1.70;;;1.60;;
7191;SDS011;3637;51.494;11.958;2023-02-01T17:41:45;1.47;;;1.37;;
7191;SDS011;3637;51.494;11.958;2023-02-01T17:44:54;2.60;;;1.30;;
7191;SDS011;3637;51.494;11.958;2023-02-01T17:47:57;1.10;;;1.10;;
7191;SDS011;3637;51.494;11.958;2023-02-01T17:51:01;1.43;;;1.20;;
7191;SDS011;3637;51.494;11.958;2023-02-01T17:54:03;1.20;;;1.20;;
7191;SDS011;3637;51.494;11.958;2023-02-01T17:57:07;4.63;;;1.30;;
7191;SDS011;3637;51.494;11.958;2023-02-01T18:00:12;3.63;;;1.37;;
7191;SDS011;3637;51.494;11.958;2023-02-01T18:03:18;1.63;;;1.53;;
7191;SDS011;3637;51.494;11.958;2023-02-01T18:06:25;2.77;;;1.30;;
7191;SDS011;3637;51.494;11.958;2023-02-01T18:09:33;2.57;;;1.60;;
7191;SDS011;3637;51.494;11.958;2023-02-01T18:12:35;1.50;;;1.40;;
7191;SDS011;3637;51.494;11.958;2023-02-01T18:15:37;1.60;;;1.50;;
7191;SDS011;3637;51.494;11.958;2023-02-01T18:18:39;2.70;;;1.60;;
7191;SDS011;3637;51.494;11.958;2023-02-01T18:21:42;1.50;;;1.40;;
7191;SDS011;3637;51.494;11.958;2023-02-01T18:24:44;2.13;;;1.60;;
7191;SDS011;3637;51.494;11.958;2023-02-01T18:27:46;1.70;;;1.60;;
7191;SDS011;3637;51.494;11.958;2023-02-01T18:30:49;1.50;;;1.40;;
7191;SDS011;3637;51.494;11.958;2023-02-01T18:33:51;1.83;;;1.67;;
7191;SDS011;3637;51.494;11.958;2023-02-01T18:36:56;2.93;;;1.50;;
7191;SDS011;3637;51.494;11.958;2023-02-01T18:39:58;1.97;;;1.30;;
7191;SDS011;3637;51.494;11.958;2023-02-01T18:43:00;1.40;;;1.30;;
7191;SDS011;3637;51.494;11.958;2023-02-01T18:46:02;1.47;;;1.37;;
7191;SDS011;3637;51.494;11.958;2023-02-01T18:49:04;1.53;;;1.43;;
7191;SDS011;3637;51.494;11.958;2023-02-01T18:52:08;1.60;;;1.50;;
7191;SDS011;3637;51.494;11.958;2023-02-01T18:55:13;1.40;;;1.30;;
7191;SDS011;3637;51.494;11.958;2023-02-01T18:58:15;1.50;;;1.40;;
7191;SDS011;3637;51.494;11.958;2023-02-01T19:01:18;1.30;;;1.20;;
7191;SDS011;3637;51.494;11.958;2023-02-01T19:04:21;2.33;;;1.50;;
7191;SDS011;3637;51.494;11.958;2023-02-01T19:07:27;2.63;;;1.70;;
7191;SDS011;3637;51.494;11.958;2023-02-01T19:10:28;1.93;;;1.60;;
7191;SDS011;3637;51.494;11.958;2023-02-01T19:13:30;2.87;;;1.33;;
7191;SDS011;3637;51.494;11.958;2023-02-01T19:16:32;2.83;;;1.60;;
7191;SDS011;3637;51.494;11.958;2023-02-01T19:19:38;4.83;;;1.57;;
7191;SDS011;3637;51.494;11.958;2023-02-01T19:22:42;3.00;;;1.90;;
7191;SDS011;3637;51.494;11.958;2023-02-01T19:25:44;1.50;;;1.40;;